createdAt,value
2023-03-29T00:02:03.277Z,99376.34
2023-03-29T00:04:31.818Z,99376.25
2023-03-29T00:07:04.719Z,99369.09
2023-03-29T00:09:33.920Z,99364.31
2023-03-29T00:12:02.442Z,99363.59
2023-03-29T00:14:32.972Z,99365.81
2023-03-29T00:17:01.874Z,99382.66
2023-03-29T00:19:36.021Z,99370.31
2023-03-29T00:22:07.799Z,99371.16
2023-03-29T00:24:37.135Z,99368.59
2023-03-29T00:27:07.353Z,99368.28
2023-03-29T00:29:36.069Z,99377.97
2023-03-29T00:32:16.490Z,99380.00
2023-03-29T00:35:21.888Z,99383.97
2023-03-29T00:38:15.886Z,99385.34
2023-03-29T00:40:48.477Z,99372.13
2023-03-29T00:43:18.014Z,99374.47
2023-03-29T00:45:46.363Z,99373.31
2023-03-29T00:48:22.581Z,99395.47
2023-03-29T00:51:04.720Z,99400.66
2023-03-29T00:53:45.017Z,99411.44
2023-03-29T00:56:25.007Z,99419.00
2023-03-29T00:59:04.041Z,99419.31
2023-03-29T01:01:43.281Z,99405.25
2023-03-29T01:04:36.918Z,99424.09
2023-03-29T01:07:18.304Z,99425.91
2023-03-29T01:09:58.537Z,99428.25
2023-03-29T01:12:33.005Z,99436.03
2023-03-29T01:15:12.539Z,99432.41
2023-03-29T01:17:43.837Z,99445.06
2023-03-29T01:20:19.468Z,99444.09
2023-03-29T01:22:55.109Z,99455.06
2023-03-29T01:26:00.670Z,99452.59
2023-03-29T01:28:39.782Z,99468.19
2023-03-29T01:31:17.686Z,99474.56
2023-03-29T01:33:49.863Z,99475.72
2023-03-29T01:39:35.321Z,99470.28
2023-03-29T01:42:12.320Z,99471.44
2023-03-29T01:44:59.920Z,99476.16
2023-03-29T01:47:47.713Z,99483.53
2023-03-29T01:50:33.728Z,99483.19
2023-03-29T01:53:09.877Z,99481.44
2023-03-29T01:55:42.144Z,99480.81
2023-03-29T01:58:12.438Z,99475.34
2023-03-29T02:00:42.542Z,99477.53
2023-03-29T02:03:10.967Z,99484.75
2023-03-29T02:05:40.088Z,99493.47
2023-03-29T02:08:14.035Z,99496.00
2023-03-29T02:10:42.518Z,99507.00
2023-03-29T02:13:11.133Z,99501.69
2023-03-29T02:15:40.157Z,99506.34
2023-03-29T02:18:09.059Z,99505.03
2023-03-29T02:20:44.210Z,99507.09
2023-03-29T02:23:34.454Z,99498.56
2023-03-29T02:26:03.772Z,99503.50
2023-03-29T02:28:35.902Z,99509.09
2023-03-29T02:31:23.269Z,99514.53
2023-03-29T02:34:28.551Z,99512.63
2023-03-29T02:37:00.469Z,99511.88
2023-03-29T02:39:32.751Z,99527.16
2023-03-29T02:42:05.093Z,99520.97
2023-03-29T02:44:37.054Z,99516.53
2023-03-29T02:47:15.883Z,99509.00
2023-03-29T02:49:44.799Z,99519.63
2023-03-29T02:52:17.860Z,99529.06
2023-03-29T02:54:48.176Z,99527.03
2023-03-29T02:57:22.480Z,99529.41
2023-03-29T02:59:50.970Z,99530.38
2023-03-29T03:02:19.147Z,99537.56
2023-03-29T03:05:07.495Z,99546.38
2023-03-29T03:07:37.771Z,99551.97
2023-03-29T03:10:35.141Z,99553.44
2023-03-29T03:13:03.275Z,99554.00
2023-03-29T03:15:40.579Z,99546.88
2023-03-29T03:18:10.864Z,99547.66
2023-03-29T03:20:41.491Z,99566.91
2023-03-29T03:23:09.947Z,99567.13
2023-03-29T03:25:41.620Z,99567.75
2023-03-29T03:28:09.619Z,99574.22
2023-03-29T03:30:37.706Z,99579.34
2023-03-29T03:33:06.823Z,99579.06
2023-03-29T03:35:35.362Z,99580.78
2023-03-29T03:38:04.308Z,99581.81
2023-03-29T03:40:32.877Z,99585.50
2023-03-29T03:43:01.545Z,99571.75
2023-03-29T03:45:29.726Z,99578.59
2023-03-29T03:47:58.243Z,99575.66
2023-03-29T03:50:26.818Z,99569.66
2023-03-29T03:52:55.445Z,99583.63
2023-03-29T03:55:25.871Z,99579.16
2023-03-29T03:57:54.610Z,99580.91
2023-03-29T04:00:23.751Z,99587.91
2023-03-29T04:02:54.786Z,99590.56
2023-03-29T04:05:23.026Z,99597.59
2023-03-29T04:07:51.283Z,99586.78
2023-03-29T04:10:19.508Z,99590.41
2023-03-29T04:12:47.623Z,99596.75
2023-03-29T04:15:18.466Z,99610.13
2023-03-29T04:18:12.958Z,99607.09
2023-03-29T04:20:42.466Z,99618.09
2023-03-29T04:23:10.809Z,99621.16
2023-03-29T04:25:39.853Z,99621.16
2023-03-29T04:28:11.045Z,99617.16
2023-03-29T04:30:41.616Z,99622.75
2023-03-29T04:33:12.674Z,99629.66
2023-03-29T04:35:43.703Z,99629.03
2023-03-29T04:38:11.770Z,99636.22
2023-03-29T04:40:40.227Z,99637.44
2023-03-29T04:43:14.770Z,99647.31
2023-03-29T04:45:45.188Z,99637.34
2023-03-29T04:48:17.569Z,99649.50
2023-03-29T04:50:47.777Z,99644.88
2023-03-29T04:53:15.898Z,99663.19
2023-03-29T04:55:47.699Z,99658.38
2023-03-29T04:58:16.450Z,99669.19
2023-03-29T05:00:46.158Z,99670.81
2023-03-29T05:03:16.009Z,99676.50
2023-03-29T05:05:44.368Z,99664.94
2023-03-29T05:08:13.936Z,99673.38
2023-03-29T05:10:44.079Z,99664.28
2023-03-29T05:13:12.786Z,99670.53
2023-03-29T05:15:44.465Z,99686.22
2023-03-29T05:18:14.758Z,99677.66
2023-03-29T05:20:43.207Z,99686.59
2023-03-29T05:23:12.895Z,99690.88
2023-03-29T05:25:44.727Z,99695.22
2023-03-29T05:28:13.205Z,99687.84
2023-03-29T05:30:43.613Z,99697.44
2023-03-29T05:33:13.233Z,99704.56
2023-03-29T05:35:41.522Z,99704.94
2023-03-29T05:38:10.102Z,99723.00
2023-03-29T05:40:38.255Z,99724.41
2023-03-29T05:43:08.206Z,99736.47
2023-03-29T05:45:36.871Z,99738.38
2023-03-29T05:48:06.542Z,99743.47
2023-03-29T05:50:35.457Z,99750.31
2023-03-29T05:53:06.521Z,99773.22
2023-03-29T05:55:36.406Z,99779.22
2023-03-29T05:58:07.719Z,99781.81
2023-03-29T06:00:38.067Z,99782.56
2023-03-29T06:03:21.363Z,99777.59
2023-03-29T06:05:59.389Z,99785.84
2023-03-29T06:08:28.923Z,99796.97
2023-03-29T06:11:04.618Z,99784.31
2023-03-29T06:13:35.498Z,99782.03
2023-03-29T06:16:04.902Z,99790.31
2023-03-29T06:18:34.562Z,99803.69
2023-03-29T06:21:05.949Z,99791.66
2023-03-29T06:23:37.186Z,99778.03
2023-03-29T06:26:08.693Z,99789.63
2023-03-29T06:28:37.058Z,99791.41
2023-03-29T06:31:06.278Z,99792.44
2023-03-29T06:33:38.385Z,99804.63
2023-03-29T06:36:09.603Z,99815.16
2023-03-29T06:38:44.614Z,99806.88
2023-03-29T06:41:13.029Z,99810.97
2023-03-29T06:43:41.087Z,99809.78
2023-03-29T06:46:12.513Z,99806.44
2023-03-29T06:48:42.000Z,99807.97
2023-03-29T06:51:10.945Z,99809.53
2023-03-29T06:53:38.988Z,99819.09
2023-03-29T06:56:09.683Z,99828.72
2023-03-29T06:58:41.181Z,99829.13
2023-03-29T07:01:09.727Z,99827.06
2023-03-29T07:03:39.836Z,99831.09
2023-03-29T07:06:11.890Z,99827.13
2023-03-29T07:08:47.751Z,99832.25
2023-03-29T07:11:20.723Z,99853.94
2023-03-29T07:13:51.423Z,99847.50
2023-03-29T07:16:19.914Z,99854.47
2023-03-29T07:18:49.407Z,99859.41
2023-03-29T07:21:18.314Z,99863.72
2023-03-29T07:23:46.483Z,99869.19
2023-03-29T07:26:14.787Z,99870.53
2023-03-29T07:28:57.135Z,99872.38
2023-03-29T07:31:25.246Z,99876.00
2023-03-29T07:33:53.721Z,99873.81
2023-03-29T07:36:25.689Z,99874.28
2023-03-29T07:38:56.312Z,99878.38
2023-03-29T07:41:24.594Z,99888.09
2023-03-29T07:43:53.013Z,99883.72
2023-03-29T07:46:21.708Z,99884.81
2023-03-29T07:48:51.762Z,99879.91
2023-03-29T07:51:23.737Z,99883.72
2023-03-29T07:53:53.516Z,99875.41
2023-03-29T07:56:21.706Z,99890.03
2023-03-29T07:58:50.196Z,99888.44
2023-03-29T08:01:20.077Z,99887.06
2023-03-29T08:03:49.065Z,99888.56
2023-03-29T08:06:18.091Z,99882.94
2023-03-29T08:08:46.864Z,99884.81
2023-03-29T08:11:15.673Z,99881.47
2023-03-29T08:13:49.238Z,99883.44
2023-03-29T08:16:19.838Z,99884.69
2023-03-29T08:18:49.192Z,99884.16
2023-03-29T08:21:19.362Z,99894.38
2023-03-29T08:23:47.888Z,99883.72
2023-03-29T08:26:16.738Z,99887.91
2023-03-29T08:28:46.310Z,99890.31
2023-03-29T08:31:16.988Z,99883.00
2023-03-29T08:33:47.124Z,99879.16
2023-03-29T08:36:15.274Z,99869.47
2023-03-29T08:38:47.938Z,99871.22
2023-03-29T08:41:30.449Z,99875.03
2023-03-29T08:44:37.671Z,99862.56
2023-03-29T08:47:31.677Z,99874.91
2023-03-29T08:50:02.808Z,99877.59
2023-03-29T08:52:39.550Z,99881.44
2023-03-29T08:55:38.763Z,99895.16
2023-03-29T08:58:14.855Z,99893.63
2023-03-29T09:00:49.221Z,99900.94
2023-03-29T09:03:49.185Z,99895.91
2023-03-29T09:06:21.274Z,99908.00
2023-03-29T09:08:52.458Z,99909.25
2023-03-29T09:11:49.207Z,99916.53
2023-03-29T09:15:15.871Z,99928.63
2023-03-29T09:18:17.019Z,99925.69
2023-03-29T09:20:49.002Z,99925.41
2023-03-29T09:23:52.758Z,99934.44
2023-03-29T09:26:33.760Z,99938.44
2023-03-29T09:29:40.528Z,99935.78
2023-03-29T09:32:24.254Z,99945.97
2023-03-29T09:35:05.111Z,99955.47
2023-03-29T09:37:40.419Z,99960.31
2023-03-29T09:40:18.672Z,99956.91
2023-03-29T09:42:50.084Z,99956.16
2023-03-29T09:45:24.214Z,99965.09
2023-03-29T09:48:13.758Z,99968.03
2023-03-29T09:50:47.019Z,99976.81
2023-03-29T09:53:16.145Z,99984.53
2023-03-29T09:55:47.806Z,99988.59
2023-03-29T09:58:24.620Z,99984.34
2023-03-29T10:00:53.617Z,100003.09
2023-03-29T10:03:26.487Z,100000.53
2023-03-29T10:06:00.359Z,100002.13
2023-03-29T10:08:37.322Z,100001.56
2023-03-29T10:11:23.812Z,100022.03
2023-03-29T10:13:57.276Z,100032.84
2023-03-29T10:16:31.591Z,100024.72
2023-03-29T10:18:59.694Z,100024.38
2023-03-29T10:21:32.256Z,100042.91
2023-03-29T10:24:03.185Z,100038.81
2023-03-29T10:26:34.999Z,100041.91
2023-03-29T10:29:06.494Z,100035.63
2023-03-29T10:31:38.482Z,100040.22
2023-03-29T10:34:07.607Z,100054.41
2023-03-29T10:36:39.050Z,100042.41
2023-03-29T10:39:08.990Z,100053.56
2023-03-29T10:41:41.011Z,100053.19
2023-03-29T10:44:35.235Z,100059.38
2023-03-29T10:47:19.890Z,100061.34
2023-03-29T10:49:56.672Z,100067.16
2023-03-29T10:52:26.305Z,100064.50
2023-03-29T10:54:56.404Z,100084.81
2023-03-29T10:57:49.879Z,100089.66
2023-03-29T11:00:42.221Z,100090.63
2023-03-29T11:03:43.328Z,100082.31
2023-03-29T11:06:53.071Z,100091.63
2023-03-29T11:09:58.660Z,100102.72
2023-03-29T11:12:39.662Z,100096.97
2023-03-29T11:15:21.289Z,100106.91
2023-03-29T11:18:16.573Z,100104.75
2023-03-29T11:21:10.206Z,100106.31
2023-03-29T11:24:06.962Z,100109.16
2023-03-29T11:27:04.585Z,100110.63
2023-03-29T11:29:57.732Z,100115.25
2023-03-29T11:32:51.608Z,100120.16
2023-03-29T11:35:53.389Z,100124.16
2023-03-29T11:38:43.373Z,100126.06
2023-03-29T11:41:23.683Z,100125.81
2023-03-29T11:43:55.256Z,100124.69
2023-03-29T11:46:47.154Z,100124.69
2023-03-29T11:49:25.828Z,100137.16
2023-03-29T11:52:02.364Z,100131.13
2023-03-29T11:54:42.226Z,100143.44
2023-03-29T11:57:54.291Z,100154.50
2023-03-29T12:00:24.525Z,100163.34
2023-03-29T12:03:00.810Z,100157.75
2023-03-29T12:05:37.406Z,100162.13
2023-03-29T12:08:14.103Z,100171.06
2023-03-29T12:10:51.270Z,100166.59
2023-03-29T12:13:34.179Z,100170.34
2023-03-29T12:16:33.006Z,100174.91
2023-03-29T12:19:41.785Z,100182.44
2023-03-29T12:22:11.317Z,100173.34
2023-03-29T12:24:42.441Z,100176.50
2023-03-29T12:27:22.669Z,100178.47
2023-03-29T12:30:15.246Z,100181.19
2023-03-29T12:33:03.971Z,100190.53
2023-03-29T12:35:46.070Z,100187.63
2023-03-29T12:38:21.968Z,100179.38
2023-03-29T12:40:56.411Z,100187.00
2023-03-29T12:43:28.350Z,100193.09
2023-03-29T12:46:18.047Z,100188.00
2023-03-29T12:49:02.195Z,100190.50
2023-03-29T12:51:32.809Z,100177.38
2023-03-29T12:54:18.637Z,100181.69
2023-03-29T12:56:52.807Z,100191.13
2023-03-29T12:59:23.525Z,100205.38
2023-03-29T13:02:14.716Z,100193.69
2023-03-29T13:04:43.818Z,100183.22
2023-03-29T13:07:23.985Z,100183.19
2023-03-29T13:09:59.358Z,100182.94
2023-03-29T13:12:35.271Z,100196.69
2023-03-29T13:15:18.616Z,100196.41
2023-03-29T13:18:15.696Z,100192.78
2023-03-29T13:20:56.416Z,100183.44
2023-03-29T13:23:46.468Z,100177.63
2023-03-29T13:26:35.986Z,100173.75
2023-03-29T13:29:10.003Z,100182.03
2023-03-29T13:31:44.497Z,100176.97
2023-03-29T13:37:55.720Z,100182.16
2023-03-29T13:40:44.627Z,100179.59
2023-03-29T13:43:43.320Z,100200.38
2023-03-29T13:46:41.271Z,100207.31
2023-03-29T13:49:21.981Z,100200.72
2023-03-29T13:52:12.859Z,100198.41
2023-03-29T13:54:58.528Z,100214.28
2023-03-29T13:57:40.434Z,100215.16
2023-03-29T14:00:30.988Z,100207.75
2023-03-29T14:03:04.477Z,100217.03
2023-03-29T14:05:38.050Z,100219.59
2023-03-29T14:08:24.734Z,100227.94
2023-03-29T14:11:02.921Z,100226.97
2023-03-29T14:13:31.923Z,100232.53
2023-03-29T14:16:12.382Z,100230.59
2023-03-29T14:18:46.746Z,100241.38
2023-03-29T14:21:16.160Z,100239.97
2023-03-29T14:23:48.449Z,100258.34
2023-03-29T14:26:22.186Z,100254.28
2023-03-29T14:28:52.324Z,100255.56
2023-03-29T14:31:25.437Z,100259.69
2023-03-29T14:34:03.605Z,100253.44
2023-03-29T14:36:34.206Z,100253.06
2023-03-29T14:39:16.157Z,100256.34
2023-03-29T14:41:52.948Z,100261.72
2023-03-29T14:44:24.800Z,100266.69
2023-03-29T14:46:56.331Z,100275.03
2023-03-29T14:49:29.531Z,100277.78
2023-03-29T14:52:03.252Z,100278.13
2023-03-29T14:54:33.849Z,100280.44
2023-03-29T14:57:07.679Z,100286.72
2023-03-29T14:59:50.692Z,100289.59
2023-03-29T15:02:34.615Z,100294.38
2023-03-29T15:05:05.156Z,100294.38
2023-03-29T15:07:34.949Z,100292.09
2023-03-29T15:10:05.882Z,100307.41
2023-03-29T15:12:34.450Z,100308.03
2023-03-29T15:15:08.261Z,100304.41
2023-03-29T15:17:51.035Z,100320.16
2023-03-29T15:20:27.326Z,100314.75
2023-03-29T15:23:10.030Z,100325.09
2023-03-29T15:25:45.585Z,100330.13
2023-03-29T15:28:34.336Z,100332.34
2023-03-29T15:31:08.233Z,100331.25
2023-03-29T15:33:40.509Z,100333.13
2023-03-29T15:36:11.131Z,100328.75
2023-03-29T15:38:44.570Z,100329.34
2023-03-29T15:41:14.538Z,100333.00
2023-03-29T15:43:46.644Z,100346.50
2023-03-29T15:46:17.780Z,100344.78
2023-03-29T15:48:46.216Z,100355.25
2023-03-29T15:51:17.705Z,100348.16
2023-03-29T15:53:45.995Z,100362.75
2023-03-29T15:56:19.363Z,100360.34
2023-03-29T15:58:49.915Z,100353.38
2023-03-29T16:01:36.863Z,100358.28
2023-03-29T16:04:20.540Z,100361.34
2023-03-29T16:06:53.103Z,100355.53
2023-03-29T16:09:26.035Z,100359.66
2023-03-29T16:11:57.772Z,100376.44
2023-03-29T16:14:31.637Z,100371.13
2023-03-29T16:17:01.604Z,100373.06
2023-03-29T16:19:32.752Z,100372.94
2023-03-29T16:22:03.308Z,100383.91
2023-03-29T16:24:32.920Z,100384.91
2023-03-29T16:27:02.832Z,100386.06
2023-03-29T16:29:32.412Z,100383.28
2023-03-29T16:32:05.479Z,100395.41
2023-03-29T16:34:36.435Z,100399.78
2023-03-29T16:37:09.201Z,100395.31
2023-03-29T16:39:40.958Z,100396.25
2023-03-29T16:42:11.322Z,100389.72
2023-03-29T16:44:39.768Z,100391.97
2023-03-29T16:47:08.895Z,100397.47
2023-03-29T16:49:40.361Z,100391.47
2023-03-29T16:52:12.133Z,100403.00
2023-03-29T16:54:41.596Z,100407.78
2023-03-29T16:57:10.619Z,100403.81
2023-03-29T16:59:39.004Z,100419.53
2023-03-29T17:02:07.443Z,100422.31
2023-03-29T17:04:36.450Z,100427.63
2023-03-29T17:07:04.851Z,100438.25
2023-03-29T17:09:38.611Z,100434.75
2023-03-29T17:12:07.050Z,100434.63
2023-03-29T17:14:35.525Z,100443.78
2023-03-29T17:17:05.081Z,100450.81
2023-03-29T17:19:36.643Z,100451.19
2023-03-29T17:22:14.304Z,100449.00
2023-03-29T17:24:47.582Z,100448.09
2023-03-29T17:27:15.813Z,100457.06
2023-03-29T17:29:43.809Z,100455.06
2023-03-29T17:32:11.937Z,100453.13
2023-03-29T17:34:40.073Z,100458.19
2023-03-29T17:37:08.114Z,100452.28
2023-03-29T17:39:37.955Z,100454.00
2023-03-29T17:42:06.065Z,100453.63
2023-03-29T17:44:34.203Z,100464.81
2023-03-29T17:47:07.761Z,100461.44
2023-03-29T17:49:42.400Z,100463.09
2023-03-29T17:52:15.566Z,100454.16
2023-03-29T17:54:43.707Z,100471.00
2023-03-29T17:57:11.962Z,100466.63
2023-03-29T17:59:40.415Z,100476.41
2023-03-29T18:02:12.716Z,100480.84
2023-03-29T18:04:41.618Z,100482.44
2023-03-29T18:07:10.232Z,100470.22
2023-03-29T18:09:39.681Z,100468.41
2023-03-29T18:12:10.649Z,100473.94
2023-03-29T18:14:41.473Z,100474.03
2023-03-29T18:17:09.798Z,100475.66
2023-03-29T18:19:41.708Z,100480.00
2023-03-29T18:22:10.245Z,100475.59
2023-03-29T18:24:38.842Z,100473.09
2023-03-29T18:27:09.519Z,100471.22
2023-03-29T18:29:38.858Z,100473.13
2023-03-29T18:32:09.041Z,100473.56
2023-03-29T18:34:39.635Z,100465.91
2023-03-29T18:37:09.624Z,100461.53
2023-03-29T18:39:39.835Z,100459.06
2023-03-29T18:42:10.894Z,100458.09
2023-03-29T18:44:42.166Z,100452.69
2023-03-29T18:47:10.182Z,100454.81
2023-03-29T18:49:42.450Z,100456.75
2023-03-29T18:52:10.847Z,100452.78
2023-03-29T18:54:39.882Z,100456.03
2023-03-29T18:57:08.466Z,100449.78
2023-03-29T18:59:41.490Z,100453.38
2023-03-29T19:02:14.518Z,100453.03
2023-03-29T19:04:43.377Z,100453.84
2023-03-29T19:07:11.524Z,100458.34
2023-03-29T19:09:39.947Z,100458.44
2023-03-29T19:12:08.006Z,100467.16
2023-03-29T19:14:39.731Z,100470.56
2023-03-29T19:17:12.422Z,100470.34
2023-03-29T19:19:40.758Z,100474.59
2023-03-29T19:22:08.980Z,100478.09
2023-03-29T19:24:37.148Z,100484.69
2023-03-29T19:27:10.170Z,100466.19
2023-03-29T19:29:40.457Z,100462.94
2023-03-29T19:32:08.483Z,100469.69
2023-03-29T19:34:36.808Z,100465.91
2023-03-29T19:37:08.555Z,100474.94
2023-03-29T19:39:39.051Z,100466.97
2023-03-29T19:42:07.202Z,100463.88
2023-03-29T19:44:38.481Z,100476.41
2023-03-29T19:47:07.066Z,100470.03
2023-03-29T19:49:40.745Z,100473.97
2023-03-29T19:52:09.070Z,100476.91
2023-03-29T19:54:40.348Z,100490.72
2023-03-29T19:57:09.445Z,100486.50
2023-03-29T19:59:41.748Z,100490.97
2023-03-29T20:02:18.852Z,100488.78
2023-03-29T20:04:50.218Z,100490.84
2023-03-29T20:07:18.798Z,100475.69
2023-03-29T20:09:48.006Z,100473.97
2023-03-29T20:12:16.126Z,100479.19
2023-03-29T20:14:44.777Z,100481.94
2023-03-29T20:17:14.109Z,100487.44
2023-03-29T20:19:44.530Z,100493.28
2023-03-29T20:22:14.409Z,100493.63
2023-03-29T20:24:45.848Z,100499.25
2023-03-29T20:27:14.200Z,100495.28
2023-03-29T20:29:44.390Z,100490.63
2023-03-29T20:32:12.924Z,100494.47
2023-03-29T20:34:43.297Z,100481.06
2023-03-29T20:37:15.063Z,100487.38
2023-03-29T20:39:45.588Z,100493.38
2023-03-29T20:42:14.555Z,100478.28
2023-03-29T20:44:51.016Z,100478.81
2023-03-29T20:47:19.530Z,100490.34
2023-03-29T20:49:47.374Z,100489.56
2023-03-29T20:52:17.243Z,100483.41
2023-03-29T20:54:46.486Z,100490.72
2023-03-29T20:57:20.466Z,100479.88
2023-03-29T20:59:51.805Z,100486.84
2023-03-29T21:02:22.058Z,100496.03
2023-03-29T21:04:54.647Z,100488.63
2023-03-29T21:07:27.910Z,100476.28
2023-03-29T21:09:56.069Z,100483.66
2023-03-29T21:12:28.022Z,100496.91
2023-03-29T21:14:56.899Z,100487.25
2023-03-29T21:17:25.069Z,100496.22
2023-03-29T21:19:53.584Z,100485.44
2023-03-29T21:22:25.091Z,100500.25
2023-03-29T21:24:55.380Z,100495.47
2023-03-29T21:27:28.283Z,100500.63
2023-03-29T21:30:00.584Z,100498.88
2023-03-29T21:32:29.400Z,100500.38
2023-03-29T21:34:58.111Z,100501.97
2023-03-29T21:37:26.810Z,100502.06
2023-03-29T21:39:58.136Z,100501.53
2023-03-29T21:42:26.379Z,100487.91
2023-03-29T21:44:59.348Z,100492.34
2023-03-29T21:47:27.641Z,100483.41
2023-03-29T21:49:57.946Z,100485.25
2023-03-29T21:52:26.466Z,100475.84
2023-03-29T21:55:02.451Z,100498.91
2023-03-29T21:57:37.094Z,100495.47
2023-03-29T22:00:11.430Z,100499.84
2023-03-29T22:02:42.878Z,100499.56
2023-03-29T22:05:13.962Z,100501.03
2023-03-29T22:07:44.113Z,100498.06
2023-03-29T22:10:15.802Z,100503.25
2023-03-29T22:12:44.051Z,100500.47
2023-03-29T22:15:12.924Z,100496.88
2023-03-29T22:17:45.094Z,100500.06
2023-03-29T22:20:24.009Z,100502.31
2023-03-29T22:22:52.022Z,100497.94
2023-03-29T22:25:20.695Z,100508.44
2023-03-29T22:27:58.923Z,100511.13
2023-03-29T22:30:27.596Z,100506.56
2023-03-29T22:32:56.156Z,100508.56
2023-03-29T22:35:24.265Z,100517.31
2023-03-29T22:37:52.475Z,100511.13
2023-03-29T22:40:22.840Z,100508.69
2023-03-29T22:42:50.952Z,100516.19
2023-03-29T22:45:19.947Z,100515.25
2023-03-29T22:47:51.451Z,100502.09
2023-03-29T22:50:19.406Z,100505.69
2023-03-29T22:52:48.216Z,100504.88
2023-03-29T22:55:16.861Z,100504.38
2023-03-29T22:57:45.329Z,100499.84
2023-03-29T23:00:14.456Z,100499.84
2023-03-29T23:02:43.195Z,100511.31
2023-03-29T23:05:16.451Z,100510.28
2023-03-29T23:07:44.825Z,100507.53
2023-03-29T23:10:16.108Z,100499.19
2023-03-29T23:12:45.305Z,100506.13
2023-03-29T23:15:13.555Z,100514.50
2023-03-29T23:17:45.901Z,100516.19
2023-03-29T23:20:14.202Z,100516.97
2023-03-29T23:22:42.575Z,100521.22
2023-03-29T23:25:16.149Z,100506.41
2023-03-29T23:27:48.962Z,100525.97
2023-03-29T23:30:25.904Z,100513.75
2023-03-29T23:32:54.724Z,100514.69
2023-03-29T23:35:24.914Z,100517.97
2023-03-29T23:37:55.104Z,100513.31
2023-03-29T23:40:24.859Z,100514.50
2023-03-29T23:42:59.717Z,100510.88
2023-03-29T23:45:28.761Z,100523.00
2023-03-29T23:47:57.765Z,100523.88
2023-03-29T23:50:30.395Z,100516.63
2023-03-29T23:53:02.407Z,100516.44
2023-03-29T23:55:31.202Z,100526.19
2023-03-29T23:57:59.755Z,100522.41
